sensor_id;sensor_type;location;lat;lon;timestamp;pressure;altitude;pressure_sealevel;temperature;humidity
64192;BME280;50497;50.720;-2.084;2023-04-02T00:00:36;102248.00;;;8.28;100.00
64192;BME280;50497;50.720;-2.084;2023-04-02T00:03:22;102285.13;;;8.46;100.00
64192;BME280;50497;50.720;-2.084;2023-04-02T00:05:47;102281.56;;;8.47;100.00
64192;BME280;50497;50.720;-2.084;2023-04-02T00:08:22;102291.34;;;8.47;100.00
64192;BME280;50497;50.720;-2.084;2023-04-02T00:11:02;102303.75;;;8.48;100.00
64192;BME280;50497;50.720;-2.084;2023-04-02T00:13:37;102310.91;;;8.46;100.00
64192;BME280;50497;50.720;-2.084;2023-04-02T00:16:06;102300.28;;;8.43;100.00
64192;BME280;50497;50.720;-2.084;2023-04-02T00:18:40;102293.13;;;8.46;100.00
64192;BME280;50497;50.720;-2.084;2023-04-02T00:21:33;102293.06;;;8.51;100.00
64192;BME280;50497;50.720;-2.084;2023-04-02T00:24:13;102286.94;;;8.43;100.00
64192;BME280;50497;50.720;-2.084;2023-04-02T00:26:46;102286.06;;;8.44;100.00
64192;BME280;50497;50.720;-2.084;2023-04-02T00:29:20;102273.59;;;8.41;100.00
64192;BME280;50497;50.720;-2.084;2023-04-02T00:31:51;102278.94;;;8.43;100.00
64192;BME280;50497;50.720;-2.084;2023-04-02T00:34:21;102275.41;;;8.39;100.00
64192;BME280;50497;50.720;-2.084;2023-04-02T00:36:52;102273.63;;;8.38;100.00
64192;BME280;50497;50.720;-2.084;2023-04-02T00:39:28;102275.38;;;8.41;100.00
64192;BME280;50497;50.720;-2.084;2023-04-02T00:41:57;102286.97;;;8.38;100.00
64192;BME280;50497;50.720;-2.084;2023-04-02T00:44:29;102281.63;;;8.38;100.00
64192;BME280;50497;50.720;-2.084;2023-04-02T00:47:02;102264.03;;;8.25;100.00
64192;BME280;50497;50.720;-2.084;2023-04-02T00:49:37;102287.88;;;8.37;100.00
64192;BME280;50497;50.720;-2.084;2023-04-02T00:52:16;102253.38;;;8.25;100.00
64192;BME280;50497;50.720;-2.084;2023-04-02T00:55:17;102274.53;;;8.39;100.00
64192;BME280;50497;50.720;-2.084;2023-04-02T00:57:49;102254.16;;;8.31;100.00
64192;BME280;50497;50.720;-2.084;2023-04-02T01:00:29;102269.19;;;8.39;100.00
64192;BME280;50497;50.720;-2.084;2023-04-02T01:03:39;102264.91;;;8.28;100.00
64192;BME280;50497;50.720;-2.084;2023-04-02T01:06:14;102256.91;;;8.28;100.00
64192;BME280;50497;50.720;-2.084;2023-04-02T01:26:03;102267.53;;;8.30;100.00
64192;BME280;50497;50.720;-2.084;2023-04-02T01:32:01;102269.25;;;8.34;100.00
64192;BME280;50497;50.720;-2.084;2023-04-02T01:34:40;102264.78;;;8.35;100.00
64192;BME280;50497;50.720;-2.084;2023-04-02T01:45:25;102250.59;;;8.32;100.00
64192;BME280;50497;50.720;-2.084;2023-04-02T01:47:51;102236.41;;;8.30;100.00
64192;BME280;50497;50.720;-2.084;2023-04-02T01:52:59;102240.94;;;8.25;100.00
64192;BME280;50497;50.720;-2.084;2023-04-02T01:55:44;102227.69;;;8.19;100.00
64192;BME280;50497;50.720;-2.084;2023-04-02T01:58:13;102202.03;;;8.12;100.00
64192;BME280;50497;50.720;-2.084;2023-04-02T02:00:49;102233.88;;;8.20;100.00
64192;BME280;50497;50.720;-2.084;2023-04-02T02:03:23;102235.72;;;8.16;100.00
64192;BME280;50497;50.720;-2.084;2023-04-02T02:05:53;102197.66;;;8.05;100.00
64192;BME280;50497;50.720;-2.084;2023-04-02T02:08:29;102237.34;;;8.28;100.00
64192;BME280;50497;50.720;-2.084;2023-04-02T02:10:59;102228.50;;;8.24;100.00
64192;BME280;50497;50.720;-2.084;2023-04-02T02:13:25;102239.19;;;8.23;100.00
64192;BME280;50497;50.720;-2.084;2023-04-02T02:15:51;102240.00;;;8.26;100.00
64192;BME280;50497;50.720;-2.084;2023-04-02T02:18:21;102246.31;;;8.21;100.00
64192;BME280;50497;50.720;-2.084;2023-04-02T02:20:52;102248.97;;;8.24;100.00
64192;BME280;50497;50.720;-2.084;2023-04-02T02:23:23;102253.34;;;8.26;100.00
64192;BME280;50497;50.720;-2.084;2023-04-02T02:25:53;102250.72;;;8.23;100.00
64192;BME280;50497;50.720;-2.084;2023-04-02T02:28:30;102223.44;;;8.04;100.00
64192;BME280;50497;50.720;-2.084;2023-04-02T02:31:12;102259.59;;;8.25;100.00
64192;BME280;50497;50.720;-2.084;2023-04-02T02:33:50;102257.88;;;8.20;100.00
64192;BME280;50497;50.720;-2.084;2023-04-02T02:36:55;102256.09;;;8.22;100.00
64192;BME280;50497;50.720;-2.084;2023-04-02T02:39:31;102266.72;;;8.23;100.00
64192;BME280;50497;50.720;-2.084;2023-04-02T02:44:49;102251.84;;;8.07;100.00
64192;BME280;50497;50.720;-2.084;2023-04-02T02:47:28;102283.63;;;8.22;100.00
64192;BME280;50497;50.720;-2.084;2023-04-02T02:50:05;102283.63;;;8.24;100.00
64192;BME280;50497;50.720;-2.084;2023-04-02T02:52:39;102284.53;;;8.20;100.00
64192;BME280;50497;50.720;-2.084;2023-04-02T02:55:16;102307.63;;;8.22;100.00
64192;BME280;50497;50.720;-2.084;2023-04-02T02:57:46;102302.28;;;8.25;100.00
64192;BME280;50497;50.720;-2.084;2023-04-02T03:00:14;102309.38;;;8.23;100.00
64192;BME280;50497;50.720;-2.084;2023-04-02T03:02:44;102318.31;;;8.22;100.00
64192;BME280;50497;50.720;-2.084;2023-04-02T03:05:20;102310.28;;;8.25;100.00
64192;BME280;50497;50.720;-2.084;2023-04-02T03:07:50;102312.00;;;8.26;100.00
64192;BME280;50497;50.720;-2.084;2023-04-02T03:13:17;102297.09;;;8.10;100.00
64192;BME280;50497;50.720;-2.084;2023-04-02T03:15:57;102323.47;;;8.33;100.00
64192;BME280;50497;50.720;-2.084;2023-04-02T03:18:44;102330.69;;;8.26;100.00
64192;BME280;50497;50.720;-2.084;2023-04-02T03:21:21;102335.97;;;8.29;100.00
64192;BME280;50497;50.720;-2.084;2023-04-02T03:26:41;102342.19;;;8.30;100.00
64192;BME280;50497;50.720;-2.084;2023-04-02T03:32:33;102345.84;;;8.21;100.00
64192;BME280;50497;50.720;-2.084;2023-04-02T03:35:18;102344.97;;;8.22;100.00
64192;BME280;50497;50.720;-2.084;2023-04-02T03:38:09;102351.13;;;8.27;100.00
64192;BME280;50497;50.720;-2.084;2023-04-02T03:41:04;102344.22;;;8.08;100.00
64192;BME280;50497;50.720;-2.084;2023-04-02T03:43:44;102335.34;;;8.07;100.00
64192;BME280;50497;50.720;-2.084;2023-04-02T03:46:51;102316.69;;;8.07;100.00
64192;BME280;50497;50.720;-2.084;2023-04-02T03:49:52;102314.88;;;8.09;100.00
64192;BME280;50497;50.720;-2.084;2023-04-02T03:52:28;102306.03;;;8.09;100.00
64192;BME280;50497;50.720;-2.084;2023-04-02T03:54:55;102307.06;;;7.95;100.00
64192;BME280;50497;50.720;-2.084;2023-04-02T03:57:46;102304.31;;;8.02;100.00
64192;BME280;50497;50.720;-2.084;2023-04-02T04:00:29;102301.56;;;8.08;100.00
64192;BME280;50497;50.720;-2.084;2023-04-02T04:03:18;102298.03;;;8.07;100.00
64192;BME280;50497;50.720;-2.084;2023-04-02T04:05:52;102285.75;;;7.95;100.00
64192;BME280;50497;50.720;-2.084;2023-04-02T04:08:24;102295.47;;;7.96;100.00
64192;BME280;50497;50.720;-2.084;2023-04-02T04:10:52;102291.06;;;7.97;100.00
64192;BME280;50497;50.720;-2.084;2023-04-02T04:22:16;102325.59;;;8.06;100.00
64192;BME280;50497;50.720;-2.084;2023-04-02T04:24:50;102322.16;;;7.93;100.00
64192;BME280;50497;50.720;-2.084;2023-04-02T04:30:03;102335.59;;;7.87;100.00
64192;BME280;50497;50.720;-2.084;2023-04-02T04:32:34;102332.91;;;7.87;100.00
64192;BME280;50497;50.720;-2.084;2023-04-02T04:35:33;102337.44;;;7.81;100.00
64192;BME280;50497;50.720;-2.084;2023-04-02T04:38:06;102354.25;;;7.86;100.00
64192;BME280;50497;50.720;-2.084;2023-04-02T04:40:44;102352.56;;;7.77;100.00
64192;BME280;50497;50.720;-2.084;2023-04-02T04:43:36;102336.66;;;7.69;100.00
64192;BME280;50497;50.720;-2.084;2023-04-02T04:46:08;102371.22;;;7.75;100.00
64192;BME280;50497;50.720;-2.084;2023-04-02T04:48:49;102364.13;;;7.76;100.00
64192;BME280;50497;50.720;-2.084;2023-04-02T04:53:47;102356.19;;;7.65;100.00
64192;BME280;50497;50.720;-2.084;2023-04-02T04:56:16;102386.31;;;7.73;100.00
64192;BME280;50497;50.720;-2.084;2023-04-02T04:59:10;102396.94;;;7.80;100.00
64192;BME280;50497;50.720;-2.084;2023-04-02T05:01:43;102407.63;;;7.75;100.00
64192;BME280;50497;50.720;-2.084;2023-04-02T05:06:48;102407.59;;;7.80;100.00
64192;BME280;50497;50.720;-2.084;2023-04-02T05:09:39;102408.47;;;7.80;100.00
64192;BME280;50497;50.720;-2.084;2023-04-02T05:12:17;102414.72;;;7.76;100.00
64192;BME280;50497;50.720;-2.084;2023-04-02T05:20:10;102415.63;;;7.72;100.00
64192;BME280;50497;50.720;-2.084;2023-04-02T05:22:52;102412.09;;;7.73;100.00
64192;BME280;50497;50.720;-2.084;2023-04-02T05:25:25;102412.94;;;7.78;100.00
64192;BME280;50497;50.720;-2.084;2023-04-02T05:28:18;102414.78;;;7.70;100.00
64192;BME280;50497;50.720;-2.084;2023-04-02T05:30:52;102385.63;;;7.54;100.00
64192;BME280;50497;50.720;-2.084;2023-04-02T05:33:27;102414.81;;;7.67;100.00
64192;BME280;50497;50.720;-2.084;2023-04-02T05:35:57;102408.63;;;7.62;100.00
64192;BME280;50497;50.720;-2.084;2023-04-02T05:38:31;102415.72;;;7.64;100.00
64192;BME280;50497;50.720;-2.084;2023-04-02T05:43:46;102420.13;;;7.68;100.00
64192;BME280;50497;50.720;-2.084;2023-04-02T05:46:34;102422.84;;;7.62;100.00
64192;BME280;50497;50.720;-2.084;2023-04-02T05:49:06;102432.59;;;7.62;100.00
64192;BME280;50497;50.720;-2.084;2023-04-02T05:51:55;102440.56;;;7.66;100.00
64192;BME280;50497;50.720;-2.084;2023-04-02T05:54:31;102446.75;;;7.70;100.00
64192;BME280;50497;50.720;-2.084;2023-04-02T05:57:08;102452.06;;;7.70;100.00
64192;BME280;50497;50.720;-2.084;2023-04-02T05:59:57;102457.41;;;7.70;100.00
64192;BME280;50497;50.720;-2.084;2023-04-02T06:02:46;102466.25;;;7.73;100.00
64192;BME280;50497;50.720;-2.084;2023-04-02T06:05:25;102463.56;;;7.75;100.00
64192;BME280;50497;50.720;-2.084;2023-04-02T06:08:07;102468.88;;;7.80;100.00
64192;BME280;50497;50.720;-2.084;2023-04-02T06:10:46;102475.06;;;7.80;100.00
64192;BME280;50497;50.720;-2.084;2023-04-02T06:13:19;102482.19;;;7.81;100.00
64192;BME280;50497;50.720;-2.084;2023-04-02T06:15:48;102484.84;;;7.83;100.00
64192;BME280;50497;50.720;-2.084;2023-04-02T06:18:23;102480.38;;;7.86;100.00
64192;BME280;50497;50.720;-2.084;2023-04-02T06:20:50;102488.38;;;7.85;100.00
64192;BME280;50497;50.720;-2.084;2023-04-02T06:26:20;102498.13;;;7.87;100.00
64192;BME280;50497;50.720;-2.084;2023-04-02T06:33:54;102513.16;;;7.99;100.00
64192;BME280;50497;50.720;-2.084;2023-04-02T06:36:22;102518.47;;;7.98;100.00
64192;BME280;50497;50.720;-2.084;2023-04-02T06:38:48;102520.19;;;8.03;100.00
64192;BME280;50497;50.720;-2.084;2023-04-02T06:41:22;102529.97;;;8.07;100.00
64192;BME280;50497;50.720;-2.084;2023-04-02T06:46:51;102544.97;;;8.18;100.00
64192;BME280;50497;50.720;-2.084;2023-04-02T06:49:25;102555.63;;;8.21;100.00
64192;BME280;50497;50.720;-2.084;2023-04-02T06:52:04;102553.00;;;8.16;100.00
64192;BME280;50497;50.720;-2.084;2023-04-02T06:54:33;102535.31;;;8.03;100.00
64192;BME280;50497;50.720;-2.084;2023-04-02T06:56:58;102536.19;;;8.03;100.00
64192;BME280;50497;50.720;-2.084;2023-04-02T06:59:28;102574.28;;;8.22;100.00
64192;BME280;50497;50.720;-2.084;2023-04-02T07:02:00;102576.06;;;8.20;100.00
64192;BME280;50497;50.720;-2.084;2023-04-02T07:04:35;102577.84;;;8.17;100.00
64192;BME280;50497;50.720;-2.084;2023-04-02T07:07:08;102593.81;;;8.21;100.00
64192;BME280;50497;50.720;-2.084;2023-04-02T07:09:37;102578.72;;;8.22;100.00
64192;BME280;50497;50.720;-2.084;2023-04-02T07:12:13;102585.81;;;8.21;100.00
64192;BME280;50497;50.720;-2.084;2023-04-02T07:14:39;102595.50;;;8.31;100.00
64192;BME280;50497;50.720;-2.084;2023-04-02T07:17:19;102600.94;;;8.22;100.00
64192;BME280;50497;50.720;-2.084;2023-04-02T07:19:49;102604.50;;;8.18;100.00
64192;BME280;50497;50.720;-2.084;2023-04-02T07:22:18;102611.63;;;8.19;100.00
64192;BME280;50497;50.720;-2.084;2023-04-02T07:24:48;102586.81;;;8.11;100.00
64192;BME280;50497;50.720;-2.084;2023-04-02T07:27:20;102615.16;;;8.21;100.00
64192;BME280;50497;50.720;-2.084;2023-04-02T07:29:52;102622.31;;;8.16;100.00
64192;BME280;50497;50.720;-2.084;2023-04-02T07:32:18;102630.31;;;8.18;100.00
64192;BME280;50497;50.720;-2.084;2023-04-02T07:34:45;102626.75;;;8.19;100.00
64192;BME280;50497;50.720;-2.084;2023-04-02T07:37:17;102621.28;;;8.34;100.00
64192;BME280;50497;50.720;-2.084;2023-04-02T07:39:43;102627.44;;;8.50;100.00
64192;BME280;50497;50.720;-2.084;2023-04-02T07:42:09;102626.59;;;8.43;100.00
64192;BME280;50497;50.720;-2.084;2023-04-02T07:44:49;102624.69;;;8.55;100.00
64192;BME280;50497;50.720;-2.084;2023-04-02T07:47:15;102646.97;;;8.52;100.00
64192;BME280;50497;50.720;-2.084;2023-04-02T07:49:50;102630.84;;;8.63;100.00
64192;BME280;50497;50.720;-2.084;2023-04-02T07:52:19;102630.16;;;8.38;100.00
64192;BME280;50497;50.720;-2.084;2023-04-02T07:54:46;102660.19;;;8.63;100.00
64192;BME280;50497;50.720;-2.084;2023-04-02T07:57:17;102659.13;;;8.87;100.00
64192;BME280;50497;50.720;-2.084;2023-04-02T07:59:48;102667.09;;;8.88;100.00
64192;BME280;50497;50.720;-2.084;2023-04-02T08:02:22;102675.75;;;9.14;100.00
64192;BME280;50497;50.720;-2.084;2023-04-02T08:04:49;102670.41;;;9.15;100.00
64192;BME280;50497;50.720;-2.084;2023-04-02T08:07:20;102718.31;;;9.29;100.00
64192;BME280;50497;50.720;-2.084;2023-04-02T08:09:48;102731.88;;;9.11;100.00
64192;BME280;50497;50.720;-2.084;2023-04-02T08:12:14;102745.22;;;9.09;100.00
64192;BME280;50497;50.720;-2.084;2023-04-02T08:14:48;102751.22;;;9.34;100.00
64192;BME280;50497;50.720;-2.084;2023-04-02T08:17:21;102740.53;;;9.34;100.00
64192;BME280;50497;50.720;-2.084;2023-04-02T08:19:50;102792.31;;;9.18;100.00
64192;BME280;50497;50.720;-2.084;2023-04-02T08:22:21;102791.31;;;9.31;100.00
64192;BME280;50497;50.720;-2.084;2023-04-02T08:24:50;102794.78;;;9.39;100.00
64192;BME280;50497;50.720;-2.084;2023-04-02T08:27:18;102796.06;;;9.00;100.00
64192;BME280;50497;50.720;-2.084;2023-04-02T08:29:45;102818.06;;;9.30;100.00
64192;BME280;50497;50.720;-2.084;2023-04-02T08:32:15;102825.09;;;9.41;100.00
64192;BME280;50497;50.720;-2.084;2023-04-02T08:34:41;102804.91;;;9.05;100.00
64192;BME280;50497;50.720;-2.084;2023-04-02T08:37:12;102822.41;;;9.41;100.00
64192;BME280;50497;50.720;-2.084;2023-04-02T08:39:39;102821.69;;;9.21;100.00
64192;BME280;50497;50.720;-2.084;2023-04-02T08:42:29;102850.31;;;9.03;100.00
64192;BME280;50497;50.720;-2.084;2023-04-02T08:47:40;102853.44;;;9.56;100.00
64192;BME280;50497;50.720;-2.084;2023-04-02T08:52:54;102890.72;;;9.70;100.00
64192;BME280;50497;50.720;-2.084;2023-04-02T09:00:39;102930.50;;;10.04;100.00
64192;BME280;50497;50.720;-2.084;2023-04-02T09:03:27;102946.88;;;9.69;100.00
64192;BME280;50497;50.720;-2.084;2023-04-02T09:05:53;102940.38;;;9.96;100.00
64192;BME280;50497;50.720;-2.084;2023-04-02T09:08:22;102926.38;;;9.66;100.00
64192;BME280;50497;50.720;-2.084;2023-04-02T09:13:32;102944.97;;;9.83;100.00
64192;BME280;50497;50.720;-2.084;2023-04-02T09:16:10;102971.44;;;10.11;100.00
64192;BME280;50497;50.720;-2.084;2023-04-02T09:18:43;102980.50;;;9.96;100.00
64192;BME280;50497;50.720;-2.084;2023-04-02T09:23:53;102968.84;;;10.06;100.00
64192;BME280;50497;50.720;-2.084;2023-04-02T09:26:26;102972.31;;;10.16;100.00
64192;BME280;50497;50.720;-2.084;2023-04-02T09:31:42;102976.22;;;9.75;100.00
64192;BME280;50497;50.720;-2.084;2023-04-02T09:34:33;102983.56;;;9.48;100.00
64192;BME280;50497;50.720;-2.084;2023-04-02T09:37:19;102988.22;;;9.12;100.00
64192;BME280;50497;50.720;-2.084;2023-04-02T09:39:50;102975.75;;;9.13;100.00
64192;BME280;50497;50.720;-2.084;2023-04-02T09:42:34;102953.38;;;9.31;100.00
64192;BME280;50497;50.720;-2.084;2023-04-02T09:45:19;102970.28;;;9.33;100.00
64192;BME280;50497;50.720;-2.084;2023-04-02T09:47:50;102972.78;;;9.60;100.00
64192;BME280;50497;50.720;-2.084;2023-04-02T09:50:34;102982.44;;;9.75;100.00
64192;BME280;50497;50.720;-2.084;2023-04-02T09:53:25;103004.66;;;9.84;100.00
64192;BME280;50497;50.720;-2.084;2023-04-02T09:58:38;103024.25;;;9.89;100.00
64192;BME280;50497;50.720;-2.084;2023-04-02T10:01:27;103046.59;;;9.78;100.00
64192;BME280;50497;50.720;-2.084;2023-04-02T10:03:55;103052.91;;;9.71;100.00
64192;BME280;50497;50.720;-2.084;2023-04-02T10:06:24;103020.88;;;9.59;100.00
64192;BME280;50497;50.720;-2.084;2023-04-02T10:08:50;103045.59;;;9.92;100.00
64192;BME280;50497;50.720;-2.084;2023-04-02T10:11:33;103031.69;;;9.39;100.00
64192;BME280;50497;50.720;-2.084;2023-04-02T10:14:16;103048.06;;;10.20;100.00
64192;BME280;50497;50.720;-2.084;2023-04-02T10:16:52;103072.22;;;10.06;100.00
64192;BME280;50497;50.720;-2.084;2023-04-02T10:19:31;103083.59;;;10.39;100.00
64192;BME280;50497;50.720;-2.084;2023-04-02T10:22:14;103093.47;;;10.24;100.00
64192;BME280;50497;50.720;-2.084;2023-04-02T10:24:41;103112.19;;;10.32;100.00
64192;BME280;50497;50.720;-2.084;2023-04-02T10:35:39;103134.94;;;9.55;100.00
64192;BME280;50497;50.720;-2.084;2023-04-02T10:41:33;103120.63;;;9.67;100.00
64192;BME280;50497;50.720;-2.084;2023-04-02T10:44:27;103077.97;;;9.52;100.00
64192;BME280;50497;50.720;-2.084;2023-04-02T10:52:09;103124.31;;;9.43;100.00
64192;BME280;50497;50.720;-2.084;2023-04-02T10:54:50;103117.19;;;9.45;100.00
64192;BME280;50497;50.720;-2.084;2023-04-02T10:57:25;103086.00;;;9.42;100.00
64192;BME280;50497;50.720;-2.084;2023-04-02T11:00:38;103120.72;;;9.47;100.00
64192;BME280;50497;50.720;-2.084;2023-04-02T11:03:12;103089.56;;;9.44;100.00
64192;BME280;50497;50.720;-2.084;2023-04-02T11:05:46;103109.06;;;9.62;100.00
64192;BME280;50497;50.720;-2.084;2023-04-02T11:08:45;103110.63;;;9.98;100.00
64192;BME280;50497;50.720;-2.084;2023-04-02T11:11:19;103120.34;;;10.10;100.00
64192;BME280;50497;50.720;-2.084;2023-04-02T11:14:09;103136.22;;;10.38;100.00
64192;BME280;50497;50.720;-2.084;2023-04-02T11:16:38;103177.19;;;10.48;100.00
64192;BME280;50497;50.720;-2.084;2023-04-02T11:50:39;103226.69;;;9.62;100.00
64192;BME280;50497;50.720;-2.084;2023-04-02T11:53:19;103215.91;;;9.80;100.00
64192;BME280;50497;50.720;-2.084;2023-04-02T12:01:41;103224.88;;;9.67;100.00
64192;BME280;50497;50.720;-2.084;2023-04-02T12:10:04;103222.56;;;10.66;100.00
64192;BME280;50497;50.720;-2.084;2023-04-02T12:12:37;103264.00;;;9.94;100.00
64192;BME280;50497;50.720;-2.084;2023-04-02T12:15:45;103263.91;;;10.11;100.00
64192;BME280;50497;50.720;-2.084;2023-04-02T12:20:46;103250.44;;;10.36;100.00
64192;BME280;50497;50.720;-2.084;2023-04-02T12:23:21;103250.69;;;11.14;100.00
64192;BME280;50497;50.720;-2.084;2023-04-02T12:26:03;103291.34;;;11.60;100.00
64192;BME280;50497;50.720;-2.084;2023-04-02T12:28:32;103353.13;;;11.46;100.00
64192;BME280;50497;50.720;-2.084;2023-04-02T12:31:12;103360.84;;;10.72;100.00
64192;BME280;50497;50.720;-2.084;2023-04-02T12:33:42;103362.81;;;10.31;100.00
64192;BME280;50497;50.720;-2.084;2023-04-02T12:41:28;103337.84;;;10.29;100.00
64192;BME280;50497;50.720;-2.084;2023-04-02T12:44:12;103334.06;;;10.70;100.00
64192;BME280;50497;50.720;-2.084;2023-04-02T12:46:45;103320.09;;;11.43;100.00
64192;BME280;50497;50.720;-2.084;2023-04-02T12:49:35;103367.97;;;11.83;100.00
64192;BME280;50497;50.720;-2.084;2023-04-02T12:52:09;103391.28;;;11.75;100.00
64192;BME280;50497;50.720;-2.084;2023-04-02T12:54:50;103409.38;;;11.53;100.00
64192;BME280;50497;50.720;-2.084;2023-04-02T12:59:59;103418.47;;;11.35;100.00
64192;BME280;50497;50.720;-2.084;2023-04-02T13:02:28;103409.78;;;10.99;100.00
64192;BME280;50497;50.720;-2.084;2023-04-02T13:05:00;103388.94;;;11.41;100.00
64192;BME280;50497;50.720;-2.084;2023-04-02T13:07:31;103409.59;;;11.26;100.00
64192;BME280;50497;50.720;-2.084;2023-04-02T13:09:59;103405.22;;;11.12;100.00
64192;BME280;50497;50.720;-2.084;2023-04-02T13:12:36;103396.44;;;10.94;100.00
64192;BME280;50497;50.720;-2.084;2023-04-02T13:15:07;103391.31;;;10.46;100.00
64192;BME280;50497;50.720;-2.084;2023-04-02T13:17:46;103366.81;;;11.14;100.00
64192;BME280;50497;50.720;-2.084;2023-04-02T13:20:31;103373.59;;;11.55;100.00
64192;BME280;50497;50.720;-2.084;2023-04-02T13:23:33;103361.81;;;11.72;100.00
64192;BME280;50497;50.720;-2.084;2023-04-02T13:26:13;103414.25;;;10.95;100.00
64192;BME280;50497;50.720;-2.084;2023-04-02T13:28:41;103401.44;;;11.40;100.00
64192;BME280;50497;50.720;-2.084;2023-04-02T13:31:16;103397.88;;;11.38;100.00
64192;BME280;50497;50.720;-2.084;2023-04-02T13:33:52;103390.09;;;11.09;100.00
64192;BME280;50497;50.720;-2.084;2023-04-02T13:36:23;103430.41;;;10.87;100.00
64192;BME280;50497;50.720;-2.084;2023-04-02T13:38:49;103438.56;;;10.53;100.00
64192;BME280;50497;50.720;-2.084;2023-04-02T13:41:24;103433.28;;;10.41;100.00
64192;BME280;50497;50.720;-2.084;2023-04-02T13:43:56;103435.91;;;10.55;100.00
64192;BME280;50497;50.720;-2.084;2023-04-02T13:46:28;103419.06;;;10.13;100.00
64192;BME280;50497;50.720;-2.084;2023-04-02T13:48:58;103423.47;;;10.29;100.00
64192;BME280;50497;50.720;-2.084;2023-04-02T13:51:48;103409.97;;;10.68;100.00
64192;BME280;50497;50.720;-2.084;2023-04-02T13:54:20;103370.69;;;10.67;100.00
64192;BME280;50497;50.720;-2.084;2023-04-02T13:56:49;103418.13;;;10.26;100.00
64192;BME280;50497;50.720;-2.084;2023-04-02T13:59:20;103368.16;;;10.28;100.00
64192;BME280;50497;50.720;-2.084;2023-04-02T14:01:51;103408.31;;;10.28;100.00
64192;BME280;50497;50.720;-2.084;2023-04-02T14:04:29;103409.19;;;10.38;100.00
64192;BME280;50497;50.720;-2.084;2023-04-02T14:09:50;103423.94;;;11.22;100.00
64192;BME280;50497;50.720;-2.084;2023-04-02T14:12:30;103441.06;;;10.95;100.00
64192;BME280;50497;50.720;-2.084;2023-04-02T14:15:24;103439.28;;;10.94;100.00
64192;BME280;50497;50.720;-2.084;2023-04-02T14:18:34;103437.34;;;11.16;100.00
64192;BME280;50497;50.720;-2.084;2023-04-02T14:24:17;103427.34;;;11.43;100.00
64192;BME280;50497;50.720;-2.084;2023-04-02T14:32:18;103442.84;;;10.93;100.00
64192;BME280;50497;50.720;-2.084;2023-04-02T14:35:02;103438.56;;;10.60;100.00
64192;BME280;50497;50.720;-2.084;2023-04-02T14:40:44;103446.66;;;10.38;100.00
64192;BME280;50497;50.720;-2.084;2023-04-02T14:43:26;103421.66;;;10.44;100.00
64192;BME280;50497;50.720;-2.084;2023-04-02T14:46:01;103470.59;;;10.78;100.00
64192;BME280;50497;50.720;-2.084;2023-04-02T14:51:23;103438.72;;;11.70;100.00
64192;BME280;50497;50.720;-2.084;2023-04-02T14:56:44;103459.63;;;13.01;100.00
64192;BME280;50497;50.720;-2.084;2023-04-02T15:01:50;103490.91;;;12.34;100.00
64192;BME280;50497;50.720;-2.084;2023-04-02T15:04:28;103501.97;;;11.98;100.00
64192;BME280;50497;50.720;-2.084;2023-04-02T15:07:13;103513.94;;;11.54;100.00
64192;BME280;50497;50.720;-2.084;2023-04-02T15:09:49;103514.94;;;11.41;100.00
64192;BME280;50497;50.720;-2.084;2023-04-02T15:12:28;103502.44;;;11.37;100.00
64192;BME280;50497;50.720;-2.084;2023-04-02T15:15:07;103498.09;;;11.17;100.00
64192;BME280;50497;50.720;-2.084;2023-04-02T15:17:42;103499.44;;;11.78;100.00
64192;BME280;50497;50.720;-2.084;2023-04-02T15:20:15;103483.16;;;12.01;100.00
64192;BME280;50497;50.720;-2.084;2023-04-02T15:22:54;103504.19;;;12.45;100.00
64192;BME280;50497;50.720;-2.084;2023-04-02T15:25:26;103540.75;;;11.54;100.00
64192;BME280;50497;50.720;-2.084;2023-04-02T15:28:01;103531.25;;;10.91;100.00
64192;BME280;50497;50.720;-2.084;2023-04-02T15:30:36;103518.59;;;11.24;100.00
64192;BME280;50497;50.720;-2.084;2023-04-02T15:36:35;103513.00;;;12.61;100.00
64192;BME280;50497;50.720;-2.084;2023-04-02T15:44:37;103510.09;;;12.76;100.00
64192;BME280;50497;50.720;-2.084;2023-04-02T15:47:11;103505.28;;;12.27;100.00
64192;BME280;50497;50.720;-2.084;2023-04-02T15:49:40;103511.13;;;11.73;100.00
64192;BME280;50497;50.720;-2.084;2023-04-02T15:52:32;103502.47;;;12.41;100.00
64192;BME280;50497;50.720;-2.084;2023-04-02T16:06:32;103516.81;;;12.36;100.00
64192;BME280;50497;50.720;-2.084;2023-04-02T16:09:25;103518.63;;;12.34;100.00
64192;BME280;50497;50.720;-2.084;2023-04-02T16:11:58;103521.38;;;12.28;100.00
64192;BME280;50497;50.720;-2.084;2023-04-02T16:14:28;103526.94;;;12.10;100.00
64192;BME280;50497;50.720;-2.084;2023-04-02T16:17:03;103526.13;;;11.97;100.00
64192;BME280;50497;50.720;-2.084;2023-04-02T16:19:34;103525.03;;;12.21;100.00
64192;BME280;50497;50.720;-2.084;2023-04-02T16:22:21;103518.81;;;12.19;100.00
64192;BME280;50497;50.720;-2.084;2023-04-02T16:24:56;103515.34;;;12.03;100.00
64192;BME280;50497;50.720;-2.084;2023-04-02T16:33:16;103527.59;;;11.17;100.00
64192;BME280;50497;50.720;-2.084;2023-04-02T16:35:59;103530.22;;;11.22;100.00
64192;BME280;50497;50.720;-2.084;2023-04-02T16:41:32;103528.50;;;11.10;100.00
64192;BME280;50497;50.720;-2.084;2023-04-02T16:49:37;103515.09;;;11.07;100.00
64192;BME280;50497;50.720;-2.084;2023-04-02T16:57:25;103536.59;;;10.95;100.00
64192;BME280;50497;50.720;-2.084;2023-04-02T17:00:09;103545.50;;;11.07;100.00
64192;BME280;50497;50.720;-2.084;2023-04-02T17:02:59;103543.78;;;10.89;100.00
64192;BME280;50497;50.720;-2.084;2023-04-02T17:05:38;103523.31;;;10.68;100.00
64192;BME280;50497;50.720;-2.084;2023-04-02T17:08:22;103529.53;;;10.75;100.00
64192;BME280;50497;50.720;-2.084;2023-04-02T17:11:01;103554.50;;;10.86;100.00
64192;BME280;50497;50.720;-2.084;2023-04-02T17:18:42;103543.84;;;10.62;100.00
64192;BME280;50497;50.720;-2.084;2023-04-02T17:21:18;103577.78;;;10.66;100.00